Time;durP1;ratioP1;P1;durP2;ratioP2;P2;SDS_P1;SDS_P2;PMS_P1;PMS_P2;Temp;Humidity;BMP_temperature;BMP_pressure;BME280_temperature;BME280_humidity;BME280_pressure;Samples;Min_cycle;Max_cycle;Signal;HPM_P1;HPM_P2
2021/10/23 00:02:14;;;;;;;3.17;2.50;;;27.90;94.50;;;;;;5079952;28;20020;-74
2021/10/23 00:04:42;;;;;;;4.13;2.85;;;28.20;93.80;;;;;;5081242;28;20056;-72
2021/10/23 00:07:09;;;;;;;3.30;2.92;;;28.20;93.70;;;;;;5080545;28;20051;-74
2021/10/23 00:09:36;;;;;;;4.25;2.70;;;28.40;92.40;;;;;;5080078;28;20043;-72
2021/10/23 00:12:04;;;;;;;3.33;2.22;;;28.30;92.80;;;;;;5078553;28;20059;-72
2021/10/23 00:14:32;;;;;;;2.60;2.33;;;28.40;92.10;;;;;;5085153;28;20027;-74
2021/10/23 00:16:59;;;;;;;9.38;2.70;;;28.40;92.90;;;;;;5061178;28;20055;-72
2021/10/23 00:19:26;;;;;;;3.28;2.28;;;28.60;92.20;;;;;;5080594;28;20521;-74
2021/10/23 00:21:54;;;;;;;3.72;1.88;;;28.70;91.90;;;;;;5075093;28;20112;-75
2021/10/23 00:24:21;;;;;;;4.43;2.67;;;28.90;91.10;;;;;;5078360;28;20475;-74
2021/10/23 00:26:49;;;;;;;2.10;1.75;;;29.20;91.00;;;;;;5075921;28;20058;-72
2021/10/23 00:29:16;;;;;;;2.28;1.88;;;29.40;91.00;;;;;;5079662;28;20060;-73
2021/10/23 00:31:44;;;;;;;3.13;1.67;;;29.70;90.60;;;;;;5078014;28;20056;-71
2021/10/23 00:34:11;;;;;;;1.95;1.63;;;29.90;89.90;;;;;;5078399;28;20031;-77
2021/10/23 00:36:41;;;;;;;2.33;1.73;;;30.20;87.60;;;;;;5078270;28;20054;-73
2021/10/23 00:39:09;;;;;;;2.08;1.67;;;30.20;88.90;;;;;;5081079;28;20498;-74
2021/10/23 00:41:36;;;;;;;2.60;1.80;;;30.30;86.70;;;;;;5083040;28;20034;-71
2021/10/23 00:44:04;;;;;;;1.58;1.17;;;30.40;84.90;;;;;;5081692;28;20411;-71
2021/10/23 00:46:32;;;;;;;3.47;1.23;;;30.50;84.40;;;;;;5077081;28;20474;-72
2021/10/23 00:48:59;;;;;;;2.47;2.08;;;30.50;83.10;;;;;;5076510;28;20032;-72
2021/10/23 00:51:27;;;;;;;3.00;1.67;;;30.40;82.60;;;;;;5076817;28;20494;-72
2021/10/23 00:53:54;;;;;;;2.63;1.63;;;30.50;83.30;;;;;;5077571;28;20090;-72
2021/10/23 00:56:22;;;;;;;1.40;1.27;;;30.50;82.20;;;;;;5075252;28;20491;-75
2021/10/23 00:58:50;;;;;;;3.30;1.50;;;30.70;84.00;;;;;;5077992;28;20028;-74
2021/10/23 01:01:17;;;;;;;1.50;1.13;;;30.70;82.00;;;;;;5072828;28;20042;-72
2021/10/23 01:03:44;;;;;;;2.15;1.10;;;30.70;82.30;;;;;;5079620;28;20024;-71
2021/10/23 01:06:12;;;;;;;1.75;1.20;;;30.80;81.40;;;;;;5075941;28;20103;-70
2021/10/23 01:08:39;;;;;;;1.85;1.10;;;31.20;81.00;;;;;;5078243;28;20062;-71
2021/10/23 01:11:07;;;;;;;3.45;1.10;;;31.30;79.60;;;;;;5079464;28;20028;-71
2021/10/23 01:13:34;;;;;;;1.33;1.10;;;31.20;79.80;;;;;;5079576;28;20088;-73
2021/10/23 01:16:01;;;;;;;4.60;1.50;;;31.40;79.50;;;;;;5066130;28;20249;-74
2021/10/23 01:18:29;;;;;;;3.78;1.35;;;31.60;79.40;;;;;;5077177;28;20039;-70
2021/10/23 01:20:56;;;;;;;1.73;0.98;;;31.90;78.80;;;;;;5076929;28;20052;-71
2021/10/23 01:23:24;;;;;;;1.98;1.08;;;32.00;78.20;;;;;;5078689;28;20029;-71
2021/10/23 01:25:51;;;;;;;1.30;1.20;;;32.10;78.10;;;;;;5083565;28;20435;-72
2021/10/23 01:28:19;;;;;;;2.97;1.30;;;32.20;76.30;;;;;;5078788;28;20027;-72
2021/10/23 01:30:47;;;;;;;1.77;1.23;;;32.30;76.10;;;;;;5079062;28;20533;-70
2021/10/23 01:33:14;;;;;;;2.35;1.10;;;32.30;78.10;;;;;;5077488;28;20039;-73
2021/10/23 01:35:43;;;;;;;2.13;1.00;;;32.40;74.80;;;;;;5078410;28;20062;-71
2021/10/23 01:38:10;;;;;;;1.42;1.30;;;32.40;74.50;;;;;;5081842;28;20024;-73
2021/10/23 01:40:38;;;;;;;0.95;0.80;;;32.50;73.80;;;;;;5077753;28;20037;-73
2021/10/23 01:43:05;;;;;;;1.60;1.30;;;32.50;73.60;;;;;;5077473;28;20433;-72
2021/10/23 01:45:33;;;;;;;2.45;1.27;;;32.60;73.10;;;;;;5077425;28;20479;-72
2021/10/23 01:48:01;;;;;;;2.30;1.27;;;32.70;73.90;;;;;;5078439;28;20070;-72
2021/10/23 01:50:29;;;;;;;1.60;1.25;;;32.80;72.40;;;;;;5076732;28;20024;-73
2021/10/23 01:52:57;;;;;;;4.35;1.30;;;33.10;78.10;;;;;;5084268;28;20483;-72
2021/10/23 01:55:25;;;;;;;1.48;1.10;;;33.60;75.70;;;;;;5079872;28;20025;-74
2021/10/23 01:57:55;;;;;;;1.10;1.00;;;34.00;75.80;;;;;;5063961;28;20048;-74
2021/10/23 02:00:22;;;;;;;1.30;1.20;;;34.30;77.40;;;;;;5078309;28;20348;-74
2021/10/23 02:02:50;;;;;;;6.00;1.30;;;34.50;73.40;;;;;;5089297;28;20127;-72
2021/10/23 02:05:17;;;;;;;2.47;1.25;;;34.50;70.40;;;;;;5078396;28;20024;-73
2021/10/23 02:07:44;;;;;;;1.67;1.48;;;34.20;71.00;;;;;;5076525;28;20035;-74
2021/10/23 02:10:12;;;;;;;2.88;1.15;;;34.10;72.50;;;;;;5075443;28;20040;-74
2021/10/23 02:12:41;;;;;;;1.02;0.60;;;34.20;69.10;;;;;;5077151;28;20032;-73
2021/10/23 02:15:09;;;;;;;1.70;0.85;;;34.10;67.00;;;;;;5073631;28;20035;-72
2021/10/23 02:17:37;;;;;;;1.45;0.95;;;34.10;69.80;;;;;;5073313;28;20143;-73
2021/10/23 02:20:13;;;;;;;1.58;1.02;;;34.30;72.30;;;;;;5078083;28;20032;-72
2021/10/23 02:22:41;;;;;;;0.85;0.80;;;34.70;68.20;;;;;;5078563;28;20031;-71
2021/10/23 02:25:10;;;;;;;2.67;1.05;;;34.80;66.40;;;;;;5080250;28;20020;-72
2021/10/23 02:27:38;;;;;;;1.10;0.80;;;34.50;67.60;;;;;;5079005;28;20028;-72
2021/10/23 02:30:08;;;;;;;1.55;1.10;;;34.40;66.70;;;;;;5074853;28;20097;-73
2021/10/23 02:32:36;;;;;;;4.38;1.63;;;34.50;66.80;;;;;;5080222;28;20024;-74
2021/10/23 02:35:04;;;;;;;3.33;1.00;;;34.80;68.50;;;;;;5081697;28;20569;-72
2021/10/23 02:37:32;;;;;;;2.35;0.98;;;34.70;67.00;;;;;;5079581;28;20039;-72
2021/10/23 02:39:59;;;;;;;1.63;1.33;;;34.80;65.80;;;;;;5079099;28;20395;-72
2021/10/23 02:42:26;;;;;;;2.17;0.93;;;34.90;66.50;;;;;;5079958;28;20438;-72
2021/10/23 02:44:54;;;;;;;1.13;1.00;;;35.20;65.70;;;;;;5078984;28;20115;-74
2021/10/23 02:47:21;;;;;;;1.35;1.00;;;35.20;64.10;;;;;;5076790;28;20383;-72
2021/10/23 02:49:49;;;;;;;3.10;1.00;;;35.30;63.80;;;;;;5074779;28;20032;-72
2021/10/23 02:52:16;;;;;;;1.63;0.90;;;35.40;62.10;;;;;;5084545;28;20324;-73
2021/10/23 02:54:43;;;;;;;1.10;0.77;;;35.40;62.10;;;;;;5089632;28;20043;-74
2021/10/23 02:57:10;;;;;;;1.75;0.90;;;35.40;63.40;;;;;;5090889;28;20462;-75
2021/10/23 02:59:40;;;;;;;2.10;1.30;;;35.40;65.30;;;;;;5092259;28;20020;-71
2021/10/23 03:02:08;;;;;;;1.90;0.80;;;35.90;67.10;;;;;;5090220;28;20128;-72
2021/10/23 03:04:35;;;;;;;3.08;0.68;;;36.20;62.20;;;;;;5073836;28;20373;-73
2021/10/23 03:07:02;;;;;;;2.83;1.67;;;36.20;60.30;;;;;;5090931;28;20485;-73
2021/10/23 03:09:30;;;;;;;2.03;1.13;;;36.30;60.10;;;;;;5087868;28;20028;-74
2021/10/23 03:11:57;;;;;;;2.65;1.10;;;36.10;60.80;;;;;;5087636;28;20154;-73
2021/10/23 03:14:24;;;;;;;0.90;0.70;;;36.00;60.90;;;;;;5093087;28;20115;-76
2021/10/23 03:16:52;;;;;;;1.75;1.00;;;36.00;60.20;;;;;;5087885;28;20510;-74
2021/10/23 03:19:19;;;;;;;1.58;1.17;;;35.90;60.90;;;;;;5085594;28;20439;-75
2021/10/23 03:21:46;;;;;;;2.67;1.08;;;35.40;59.80;;;;;;5085920;28;20027;-71
2021/10/23 03:24:14;;;;;;;1.20;1.00;;;35.30;60.90;;;;;;5077092;28;20028;-73
2021/10/23 03:26:41;;;;;;;1.35;1.10;;;35.30;59.80;;;;;;5078910;28;20119;-71
2021/10/23 03:29:08;;;;;;;1.88;1.08;;;35.40;61.70;;;;;;5073062;28;20120;-74
2021/10/23 03:31:36;;;;;;;4.45;1.00;;;35.70;61.50;;;;;;5081888;28;20044;-73
2021/10/23 03:34:03;;;;;;;2.53;0.82;;;36.00;65.60;;;;;;5093318;28;20043;-72
2021/10/23 03:36:33;;;;;;;3.72;1.77;;;36.50;64.30;;;;;;5090849;28;20047;-72
2021/10/23 03:39:00;;;;;;;1.83;0.90;;;36.80;62.70;;;;;;5079631;28;20063;-74
2021/10/23 03:41:28;;;;;;;1.13;1.02;;;36.80;59.50;;;;;;5077660;28;20032;-72
2021/10/23 03:43:55;;;;;;;1.00;0.80;;;36.90;58.80;;;;;;5075871;28;20337;-74
2021/10/23 03:46:22;;;;;;;1.63;0.88;;;36.80;60.00;;;;;;5077233;28;20085;-72
2021/10/23 03:48:49;;;;;;;1.98;0.90;;;36.60;59.90;;;;;;5080273;28;20375;-73
2021/10/23 03:51:17;;;;;;;3.90;1.10;;;36.00;59.70;;;;;;5075337;28;20035;-72
2021/10/23 03:53:44;;;;;;;2.58;1.08;;;35.50;60.10;;;;;;5084022;28;20093;-72
2021/10/23 03:56:11;;;;;;;2.53;0.77;;;35.10;61.30;;;;;;5078193;28;20050;-72
2021/10/23 03:58:42;;;;;;;2.67;1.02;;;34.80;61.30;;;;;;5083501;28;20024;-71
2021/10/23 04:01:09;;;;;;;1.00;0.77;;;34.70;61.40;;;;;;5078708;28;20020;-71
2021/10/23 04:03:36;;;;;;;3.40;0.98;;;34.40;60.20;;;;;;5079907;28;20671;-71
2021/10/23 04:06:05;;;;;;;3.13;1.00;;;33.90;59.50;;;;;;5077946;28;20087;-73
2021/10/23 04:08:32;;;;;;;1.65;1.55;;;33.80;61.30;;;;;;5075044;28;20107;-71
2021/10/23 04:10:59;;;;;;;3.10;1.17;;;33.70;61.30;;;;;;5078949;28;20016;-72
2021/10/23 04:13:27;;;;;;;1.98;1.00;;;33.90;61.50;;;;;;5087737;28;20032;-72
2021/10/23 04:15:54;;;;;;;3.58;1.50;;;33.90;60.10;;;;;;5087092;28;20020;-72
2021/10/23 04:18:21;;;;;;;1.55;1.23;;;33.90;60.50;;;;;;5078789;28;20027;-71
2021/10/23 04:20:49;;;;;;;1.60;0.90;;;34.30;60.90;;;;;;5084236;28;20016;-72
2021/10/23 04:23:16;;;;;;;1.27;1.05;;;34.60;62.80;;;;;;5059206;28;20082;-72
2021/10/23 04:25:44;;;;;;;2.83;1.52;;;34.80;59.40;;;;;;5077829;28;20027;-72
2021/10/23 04:28:11;;;;;;;2.38;1.23;;;35.20;59.60;;;;;;5078519;28;20020;-72
2021/10/23 04:30:39;;;;;;;2.22;1.13;;;35.40;58.10;;;;;;5077585;28;20093;-71
2021/10/23 04:33:06;;;;;;;0.90;0.82;;;35.50;57.70;;;;;;5083534;28;21023;-72
2021/10/23 04:35:33;;;;;;;1.77;1.10;;;35.60;60.20;;;;;;5079749;28;21399;-72
2021/10/23 04:38:01;;;;;;;1.85;1.10;;;35.90;60.00;;;;;;5082512;28;20050;-72
2021/10/23 04:40:28;;;;;;;1.30;0.80;;;35.50;59.00;;;;;;5076525;28;20031;-72
2021/10/23 04:42:55;;;;;;;1.58;1.00;;;34.80;55.80;;;;;;5066940;28;20414;-72
2021/10/23 04:45:23;;;;;;;1.30;1.10;;;34.00;57.90;;;;;;5086061;28;20020;-72
2021/10/23 04:47:50;;;;;;;1.88;0.90;;;34.10;62.30;;;;;;5080327;28;20102;-72
2021/10/23 04:50:18;;;;;;;1.45;1.23;;;34.00;63.70;;;;;;5084394;28;20025;-74
2021/10/23 04:52:45;;;;;;;3.40;1.75;;;34.00;65.30;;;;;;5082056;28;20035;-71
2021/10/23 04:55:12;;;;;;;1.83;1.38;;;33.70;65.70;;;;;;5083270;28;20027;-72
2021/10/23 04:57:40;;;;;;;2.72;1.58;;;33.60;66.90;;;;;;5079945;28;20110;-71
2021/10/23 05:00:08;;;;;;;2.92;1.52;;;33.50;67.40;;;;;;5079871;28;20113;-71
2021/10/23 05:02:35;;;;;;;3.28;1.67;;;33.50;67.70;;;;;;5079165;28;20032;-72
2021/10/23 05:05:03;;;;;;;4.45;2.17;;;33.30;67.30;;;;;;5079503;28;20047;-71
2021/10/23 05:07:30;;;;;;;5.25;1.73;;;33.10;67.50;;;;;;5079505;28;20020;-72
2021/10/23 05:09:57;;;;;;;3.53;1.73;;;32.90;68.00;;;;;;5084880;28;20395;-72
2021/10/23 05:12:26;;;;;;;6.05;2.20;;;32.60;69.00;;;;;;5082025;28;20442;-72
2021/10/23 05:14:53;;;;;;;3.10;1.50;;;32.50;68.80;;;;;;5081475;28;20090;-72
2021/10/23 05:17:20;;;;;;;7.55;1.83;;;32.50;68.70;;;;;;5081879;28;20024;-72
2021/10/23 05:19:48;;;;;;;3.55;1.80;;;32.60;69.40;;;;;;5078975;28;20486;-71
2021/10/23 05:22:16;;;;;;;2.67;1.17;;;32.60;69.20;;;;;;5060301;28;20368;-72
2021/10/23 05:24:43;;;;;;;5.03;1.70;;;32.60;69.50;;;;;;5080130;28;20497;-74
2021/10/23 05:27:11;;;;;;;2.08;1.33;;;32.60;69.40;;;;;;5079887;28;20050;-72
2021/10/23 05:29:38;;;;;;;3.08;1.25;;;32.50;68.60;;;;;;5078906;28;20085;-72
2021/10/23 05:32:05;;;;;;;2.13;1.52;;;32.20;69.00;;;;;;5080761;28;20027;-71
2021/10/23 05:34:33;;;;;;;4.15;1.73;;;32.20;70.50;;;;;;5079463;28;20575;-72
2021/10/23 05:37:00;;;;;;;2.45;1.02;;;32.20;70.30;;;;;;5078716;28;20055;-73
2021/10/23 05:39:28;;;;;;;2.45;1.20;;;32.20;69.80;;;;;;5078854;28;20020;-72
2021/10/23 05:41:55;;;;;;;3.13;1.40;;;32.00;70.00;;;;;;5075977;28;20024;-71
2021/10/23 05:44:23;;;;;;;2.65;1.65;;;32.00;70.70;;;;;;5078851;28;20027;-71
2021/10/23 05:46:50;;;;;;;3.60;1.20;;;31.80;71.10;;;;;;5077047;28;20023;-72
2021/10/23 05:49:18;;;;;;;2.00;1.23;;;31.70;71.30;;;;;;5079823;28;20032;-71
2021/10/23 05:51:46;;;;;;;2.67;1.02;;;31.50;71.20;;;;;;5078150;28;20067;-72
2021/10/23 05:54:14;;;;;;;3.05;1.33;;;31.50;70.80;;;;;;5081821;28;20391;-73
2021/10/23 05:56:41;;;;;;;2.47;1.40;;;31.40;70.00;;;;;;5083506;28;20024;-71
2021/10/23 05:59:13;;;;;;;1.50;1.00;;;31.40;70.00;;;;;;5083205;28;20035;-72
2021/10/23 06:01:45;;;;;;;2.60;1.33;;;31.40;70.50;;;;;;5084544;28;20690;-73
2021/10/23 06:04:16;;;;;;;3.20;1.23;;;31.30;70.60;;;;;;5082211;28;20036;-72
2021/10/23 06:06:45;;;;;;;2.95;1.10;;;31.30;71.20;;;;;;5084551;28;20039;-72
2021/10/23 06:09:13;;;;;;;1.65;0.90;;;31.30;71.90;;;;;;5089611;28;20035;-73
2021/10/23 06:11:40;;;;;;;0.77;0.70;;;31.40;71.10;;;;;;5084867;28;20020;-74
2021/10/23 06:14:07;;;;;;;2.83;1.38;;;31.30;71.60;;;;;;5092150;28;20364;-75
2021/10/23 06:16:35;;;;;;;3.58;1.35;;;31.30;71.10;;;;;;5081297;28;20486;-72
2021/10/23 06:19:02;;;;;;;3.15;1.00;;;31.20;71.00;;;;;;5082966;28;20425;-72
2021/10/23 06:21:29;;;;;;;3.10;1.02;;;31.20;71.70;;;;;;5080697;28;20056;-71
2021/10/23 06:23:57;;;;;;;2.38;1.20;;;31.10;72.20;;;;;;5079745;28;20020;-73
2021/10/23 06:26:24;;;;;;;1.80;1.02;;;31.00;72.50;;;;;;5082479;28;20032;-75
2021/10/23 06:28:52;;;;;;;2.22;1.23;;;30.90;72.40;;;;;;5082513;28;20035;-75
2021/10/23 06:31:19;;;;;;;2.78;1.20;;;30.90;71.90;;;;;;5082866;28;20024;-74
2021/10/23 06:33:46;;;;;;;1.60;1.17;;;30.80;72.50;;;;;;5085340;28;20094;-72
2021/10/23 06:36:14;;;;;;;3.92;0.90;;;30.60;73.30;;;;;;5083465;28;20043;-73
2021/10/23 06:38:42;;;;;;;7.70;1.50;;;30.50;73.80;;;;;;5081112;28;20478;-75
2021/10/23 06:41:10;;;;;;;2.17;1.40;;;30.50;74.10;;;;;;5085668;28;20031;-73
2021/10/23 06:43:37;;;;;;;2.05;0.70;;;30.30;74.50;;;;;;5081345;28;20028;-75
2021/10/23 06:46:05;;;;;;;1.48;1.00;;;30.20;74.80;;;;;;5061451;28;20078;-73
2021/10/23 06:48:32;;;;;;;3.03;1.00;;;30.10;75.30;;;;;;5078743;28;20151;-72
2021/10/23 06:51:00;;;;;;;2.45;1.10;;;29.80;74.50;;;;;;5079127;28;20085;-73
2021/10/23 06:53:27;;;;;;;2.35;0.93;;;29.60;75.40;;;;;;5082869;28;20028;-72
2021/10/23 06:55:54;;;;;;;6.82;1.02;;;29.60;75.60;;;;;;5085480;28;20077;-73
2021/10/23 06:58:22;;;;;;;1.63;1.13;;;29.40;75.70;;;;;;5082418;28;20091;-71
2021/10/23 07:00:50;;;;;;;1.15;0.88;;;29.30;75.60;;;;;;5079446;28;20027;-74
2021/10/23 07:03:18;;;;;;;3.53;1.20;;;29.20;75.70;;;;;;5080359;28;20098;-73
2021/10/23 07:05:47;;;;;;;2.63;0.98;;;29.20;75.60;;;;;;5074786;28;20543;-75
2021/10/23 07:08:14;;;;;;;4.22;3.80;;;29.10;75.30;;;;;;5089247;28;20067;-74
2021/10/23 07:10:42;;;;;;;4.70;2.90;;;29.00;76.00;;;;;;5099885;28;20090;-72
2021/10/23 07:13:10;;;;;;;57.80;40.60;;;28.90;76.80;;;;;;5103601;28;20097;-72
2021/10/23 07:15:39;;;;;;;17.50;14.02;;;28.70;77.00;;;;;;5101833;28;20063;-71
2021/10/23 07:18:06;;;;;;;4.53;1.73;;;28.60;77.50;;;;;;5097360;28;20054;-71
2021/10/23 07:20:35;;;;;;;1.98;1.00;;;28.50;78.10;;;;;;5078052;28;20040;-72
2021/10/23 07:23:03;;;;;;;1.88;0.90;;;28.30;78.30;;;;;;5090874;28;20036;-74
2021/10/23 07:25:31;;;;;;;6.03;0.98;;;28.20;78.80;;;;;;5091174;28;20475;-73
2021/10/23 07:27:59;;;;;;;2.90;0.93;;;28.10;79.40;;;;;;5093816;28;20150;-74
2021/10/23 07:30:26;;;;;;;2.20;1.00;;;28.00;79.70;;;;;;5071709;28;20059;-73
2021/10/23 07:32:54;;;;;;;5.75;2.30;;;27.90;79.50;;;;;;5082120;28;20044;-72
2021/10/23 07:35:21;;;;;;;2.40;1.17;;;28.00;80.30;;;;;;5073047;28;20397;-72
2021/10/23 07:37:49;;;;;;;1.90;1.10;;;28.00;80.30;;;;;;5082171;28;20107;-72
2021/10/23 07:40:16;;;;;;;2.45;1.00;;;28.00;80.60;;;;;;5077562;28;20031;-73
2021/10/23 07:42:44;;;;;;;1.77;1.38;;;28.00;80.40;;;;;;5084325;28;20040;-70
2021/10/23 07:45:13;;;;;;;1.98;1.48;;;28.00;80.50;;;;;;5081778;28;20028;-71
2021/10/23 07:47:42;;;;;;;2.30;0.90;;;27.90;80.40;;;;;;5082933;28;20031;-72
2021/10/23 07:50:11;;;;;;;6.57;1.23;;;27.70;80.60;;;;;;5084917;28;20032;-72
2021/10/23 07:52:39;;;;;;;2.70;0.88;;;27.60;80.90;;;;;;5082597;28;20031;-72
2021/10/23 07:55:09;;;;;;;5.03;1.02;;;27.50;81.30;;;;;;5084263;28;20114;-73
2021/10/23 07:57:38;;;;;;;3.65;1.33;;;27.50;82.00;;;;;;5076569;28;22716;-74
2021/10/23 08:00:07;;;;;;;1.58;1.30;;;27.30;83.30;;;;;;5082116;28;20055;-73
2021/10/23 08:02:35;;;;;;;1.85;1.20;;;27.00;84.50;;;;;;5079759;28;20035;-72
2021/10/23 08:05:02;;;;;;;2.03;1.05;;;26.90;85.10;;;;;;5077691;28;20021;-72
2021/10/23 08:07:31;;;;;;;4.40;1.52;;;26.70;86.00;;;;;;5060509;28;20032;-72
2021/10/23 08:09:58;;;;;;;3.15;1.40;;;26.60;86.50;;;;;;5060027;28;20031;-72
2021/10/23 08:12:26;;;;;;;3.42;1.73;;;26.50;87.20;;;;;;5079660;28;20031;-73
2021/10/23 08:14:53;;;;;;;3.67;1.30;;;26.40;87.00;;;;;;5092589;28;20035;-74
2021/10/23 08:17:20;;;;;;;3.58;2.60;;;26.30;87.90;;;;;;5090321;28;20380;-72
2021/10/23 08:19:48;;;;;;;4.72;1.80;;;26.20;88.30;;;;;;5087036;28;20044;-74
2021/10/23 08:22:15;;;;;;;2.25;1.30;;;26.20;89.00;;;;;;5085220;28;20020;-71
2021/10/23 08:24:48;;;;;;;1.50;1.20;;;26.10;89.50;;;;;;5079083;28;20028;-74
2021/10/23 08:27:16;;;;;;;3.45;2.13;;;26.00;90.00;;;;;;5084601;28;20028;-72
2021/10/23 08:29:45;;;;;;;2.97;2.22;;;25.90;90.30;;;;;;5079530;28;20036;-71
2021/10/23 08:32:16;;;;;;;3.58;1.90;;;25.80;90.60;;;;;;5060276;28;20020;-71
2021/10/23 08:34:44;;;;;;;3.47;1.50;;;25.80;90.80;;;;;;5080558;28;20039;-71
2021/10/23 08:37:12;;;;;;;3.75;1.85;;;25.70;91.00;;;;;;5080336;28;20021;-70
2021/10/23 08:39:40;;;;;;;5.15;1.60;;;25.70;91.20;;;;;;5083088;28;20497;-71
2021/10/23 08:42:09;;;;;;;3.35;1.33;;;25.70;91.20;;;;;;5078264;28;20031;-71
2021/10/23 08:44:38;;;;;;;3.25;1.80;;;25.70;91.20;;;;;;5081313;28;20036;-74
2021/10/23 08:47:07;;;;;;;1.27;0.95;;;25.60;91.40;;;;;;5087317;28;20027;-74
2021/10/23 08:49:36;;;;;;;1.80;1.00;;;25.50;91.90;;;;;;5087010;28;20078;-77
2021/10/23 08:52:04;;;;;;;2.28;1.10;;;25.40;92.30;;;;;;5077234;28;20107;-75
2021/10/23 08:54:35;;;;;;;1.95;1.25;;;25.30;92.60;;;;;;5080168;28;20156;-76
2021/10/23 08:57:03;;;;;;;4.40;1.52;;;25.30;92.80;;;;;;5077624;28;20471;-74
2021/10/23 08:59:33;;;;;;;5.10;1.30;;;25.30;93.10;;;;;;5077927;28;20534;-73
2021/10/23 09:02:02;;;;;;;3.92;1.10;;;25.10;93.40;;;;;;5078770;28;20054;-73
2021/10/23 09:04:31;;;;;;;3.20;1.40;;;25.10;93.70;;;;;;5079347;28;20024;-75
2021/10/23 09:07:12;;;;;;;3.10;1.42;;;25.00;94.10;;;;;;5078565;28;20021;-74
2021/10/23 09:09:51;;;;;;;1.88;1.08;;;25.00;94.50;;;;;;5082093;28;20038;-74
2021/10/23 09:12:31;;;;;;;2.00;1.00;;;25.00;94.90;;;;;;5079701;28;21785;-76
2021/10/23 09:15:15;;;;;;;3.20;1.08;;;24.90;95.20;;;;;;5081523;28;20058;-74
2021/10/23 09:17:50;;;;;;;4.53;1.60;;;24.90;95.60;;;;;;5081816;28;20025;-75
2021/10/23 09:20:19;;;;;;;2.67;1.70;;;24.90;96.10;;;;;;5078787;28;20032;-75
2021/10/23 09:22:52;;;;;;;2.83;1.58;;;24.90;96.50;;;;;;5079778;28;20156;-76
2021/10/23 09:25:25;;;;;;;2.60;1.15;;;24.80;97.10;;;;;;5075379;28;20047;-73
2021/10/23 09:28:03;;;;;;;2.17;0.80;;;24.60;97.60;;;;;;5063096;28;20035;-74
2021/10/23 09:30:37;;;;;;;4.47;2.00;;;24.60;98.20;;;;;;5064115;28;20072;-77
2021/10/23 09:33:11;;;;;;;3.65;1.60;;;24.50;99.00;;;;;;5083791;28;20039;-73
2021/10/23 09:35:44;;;;;;;3.20;1.85;;;24.40;99.60;;;;;;5082113;28;20036;-73
2021/10/23 09:38:17;;;;;;;3.45;1.52;;;24.40;99.90;;;;;;5065253;28;20052;-74
2021/10/23 09:40:56;;;;;;;9.15;2.40;;;24.30;99.90;;;;;;5083361;28;20411;-74
2021/10/23 09:43:28;;;;;;;3.90;2.65;;;24.20;99.90;;;;;;5079882;28;20025;-78
2021/10/23 09:45:58;;;;;;;6.20;3.47;;;24.10;99.90;;;;;;5085092;28;21716;-75
2021/10/23 09:48:53;;;;;;;17.50;6.60;;;24.10;99.90;;;;;;5079181;28;20032;-74
2021/10/23 09:51:29;;;;;;;4.45;2.20;;;24.10;99.90;;;;;;5079799;28;20043;-76
2021/10/23 09:53:58;;;;;;;4.75;2.10;;;24.10;99.90;;;;;;5083183;28;20048;-73
2021/10/23 09:56:52;;;;;;;4.07;2.60;;;24.10;99.90;;;;;;5084356;28;20340;-75
2021/10/23 09:59:29;;;;;;;6.07;3.50;;;24.10;99.90;;;;;;5082368;28;20098;-73
2021/10/23 10:02:02;;;;;;;3.95;2.22;;;24.10;99.90;;;;;;5083504;28;20058;-76
2021/10/23 10:04:30;;;;;;;2.30;1.08;;;24.10;99.90;;;;;;5081191;28;20509;-73
2021/10/23 10:07:00;;;;;;;5.03;1.55;;;24.10;99.90;;;;;;5081128;28;20028;-72
2021/10/23 10:09:28;;;;;;;3.42;1.48;;;24.00;99.90;;;;;;5082686;28;20526;-73
2021/10/23 10:11:57;;;;;;;3.78;1.85;;;24.00;99.90;;;;;;5078745;28;20043;-75
2021/10/23 10:14:35;;;;;;;5.72;1.80;;;23.80;99.90;;;;;;5081914;28;20051;-77
2021/10/23 10:17:03;;;;;;;8.68;2.47;;;23.70;99.90;;;;;;5083639;28;20410;-79
2021/10/23 10:19:31;;;;;;;4.93;1.60;;;23.60;99.90;;;;;;5085432;28;20058;-76
2021/10/23 10:22:08;;;;;;;5.78;1.73;;;23.50;99.90;;;;;;5082083;28;20136;-72
2021/10/23 10:24:39;;;;;;;5.65;2.53;;;23.40;99.90;;;;;;5082763;28;20032;-77
2021/10/23 10:27:09;;;;;;;4.82;1.80;;;23.20;99.90;;;;;;5085748;28;20020;-75
2021/10/23 10:29:55;;;;;;;5.18;1.85;;;23.10;99.90;;;;;;5066537;28;20040;-75
2021/10/23 10:32:42;;;;;;;4.57;1.60;;;23.00;99.90;;;;;;5083019;28;20024;-75
2021/10/23 10:35:23;;;;;;;3.10;1.88;;;22.80;99.90;;;;;;5092132;28;20040;-78
2021/10/23 10:43:18;;;;;;;3.97;2.13;;;22.40;99.90;;;;;;5084137;28;20029;-78
2021/10/23 10:45:46;;;;;;;3.10;2.35;;;22.30;99.90;;;;;;5083084;28;20043;-76
2021/10/23 10:48:21;;;;;;;4.25;2.22;;;22.10;99.90;;;;;;5083664;28;20024;-75
2021/10/23 10:50:51;;;;;;;3.20;2.57;;;22.00;99.90;;;;;;5076951;28;20024;-74
2021/10/23 10:53:20;;;;;;;4.45;2.30;;;22.00;99.90;;;;;;5082467;28;20284;-74
2021/10/23 10:55:51;;;;;;;5.43;2.65;;;21.90;99.90;;;;;;5085702;28;20375;-75
2021/10/23 10:58:42;;;;;;;3.95;2.10;;;21.80;99.90;;;;;;5086536;28;20021;-75
2021/10/23 11:01:33;;;;;;;6.90;2.90;;;21.60;99.90;;;;;;5086236;28;20028;-71
2021/10/23 11:04:06;;;;;;;6.65;2.40;;;21.60;99.90;;;;;;5081478;28;20075;-74
2021/10/23 11:06:36;;;;;;;2.28;1.98;;;21.40;99.90;;;;;;5083360;28;20309;-73
2021/10/23 11:09:09;;;;;;;3.92;2.03;;;21.30;99.90;;;;;;5082468;28;20028;-75
2021/10/23 11:11:47;;;;;;;4.40;2.47;;;21.20;99.90;;;;;;5082447;28;20031;-75
2021/10/23 11:14:35;;;;;;;3.58;2.47;;;21.10;99.90;;;;;;5090527;28;20044;-76
2021/10/23 11:17:03;;;;;;;7.55;3.50;;;21.00;99.90;;;;;;5090457;28;20303;-73
2021/10/23 11:19:34;;;;;;;3.80;2.50;;;20.90;99.90;;;;;;5094571;28;20027;-75
2021/10/23 11:22:34;;;;;;;5.93;3.30;;;20.80;99.90;;;;;;5092627;28;20076;-76
2021/10/23 11:25:08;;;;;;;7.47;2.45;;;20.80;99.90;;;;;;5060800;28;20044;-77
2021/10/23 11:27:41;;;;;;;3.33;2.85;;;20.80;99.90;;;;;;5092561;28;20055;-77
2021/10/23 11:30:23;;;;;;;3.15;2.35;;;20.80;99.90;;;;;;5094056;28;20047;-76
2021/10/23 11:32:56;;;;;;;3.42;3.00;;;20.80;99.90;;;;;;5087558;28;20081;-74
2021/10/23 11:35:35;;;;;;;3.85;2.67;;;20.80;99.90;;;;;;5074360;28;20521;-75
2021/10/23 11:38:11;;;;;;;4.93;2.50;;;20.80;99.90;;;;;;5083558;28;20046;-75
2021/10/23 11:40:38;;;;;;;;;;;20.80;99.90;;;;;;5092368;28;20028;-75
2021/10/23 11:43:07;;;;;;;6.05;2.95;;;20.80;99.90;;;;;;5093849;28;19908;-77
2021/10/23 11:45:36;;;;;;;3.13;2.40;;;20.80;99.90;;;;;;5092143;28;20025;-76
2021/10/23 11:48:08;;;;;;;2.42;2.03;;;20.80;99.90;;;;;;5093352;28;20024;-74
2021/10/23 11:50:38;;;;;;;3.75;2.13;;;20.80;99.90;;;;;;5082272;28;20071;-75
2021/10/23 11:53:18;;;;;;;3.78;2.88;;;20.90;99.90;;;;;;5077499;28;20515;-76
2021/10/23 11:56:00;;;;;;;3.85;2.30;;;20.90;99.90;;;;;;5089183;28;20043;-76
2021/10/23 11:58:30;;;;;;;2.70;2.20;;;20.90;99.90;;;;;;5093533;28;20089;-77
2021/10/23 12:01:08;;;;;;;4.95;2.80;;;20.90;99.90;;;;;;5079716;28;20108;-70
2021/10/23 12:03:49;;;;;;;4.28;2.88;;;20.90;99.90;;;;;;5075265;28;20024;-76
2021/10/23 12:06:38;;;;;;;7.10;2.92;;;20.80;99.90;;;;;;5081685;28;20020;-75
2021/10/23 12:09:23;;;;;;;4.40;2.50;;;20.80;99.90;;;;;;5083636;28;20081;-75
2021/10/23 12:12:13;;;;;;;7.97;3.85;;;20.80;99.90;;;;;;5071756;28;20352;-76
2021/10/23 12:14:41;;;;;;;8.93;2.88;;;20.70;99.90;;;;;;5063885;28;20479;-76
2021/10/23 12:17:08;;;;;;;3.20;2.45;;;20.60;99.90;;;;;;5087100;28;20035;-74
2021/10/23 12:19:36;;;;;;;7.47;2.60;;;20.60;99.90;;;;;;5075375;28;20036;-74
2021/10/23 12:22:08;;;;;;;4.40;2.50;;;20.50;99.90;;;;;;5082355;28;20386;-73
2021/10/23 12:24:37;;;;;;;4.90;2.25;;;20.50;99.90;;;;;;5072776;28;20115;-73
2021/10/23 12:27:06;;;;;;;4.38;2.22;;;20.50;99.90;;;;;;5084060;28;20032;-73
2021/10/23 12:30:00;;;;;;;5.18;2.65;;;20.60;99.90;;;;;;5082410;28;20165;-74
2021/10/23 12:32:27;;;;;;;4.57;2.03;;;20.60;99.90;;;;;;5083007;28;20176;-75
2021/10/23 12:34:56;;;;;;;2.75;2.00;;;20.60;99.90;;;;;;5084052;28;20059;-72
2021/10/23 12:37:37;;;;;;;3.70;2.75;;;20.70;99.90;;;;;;5077392;28;20102;-72
2021/10/23 12:40:24;;;;;;;4.40;2.13;;;20.70;99.90;;;;;;5083139;28;20494;-74
2021/10/23 12:43:06;;;;;;;3.83;2.33;;;20.60;99.90;;;;;;5078970;28;20031;-71
2021/10/23 12:45:44;;;;;;;3.88;2.50;;;20.60;99.90;;;;;;5062816;28;20036;-75
2021/10/23 12:48:16;;;;;;;3.08;2.45;;;20.50;99.90;;;;;;5081107;28;20036;-73
2021/10/23 12:50:45;;;;;;;4.85;2.88;;;20.40;99.90;;;;;;5085586;28;20152;-74
2021/10/23 12:53:13;;;;;;;6.05;2.67;;;20.30;99.90;;;;;;5072658;28;20025;-73
2021/10/23 12:55:41;;;;;;;4.90;2.92;;;20.10;99.90;;;;;;5074239;28;20048;-73
2021/10/23 12:58:09;;;;;;;3.47;2.78;;;20.10;99.90;;;;;;5075593;28;20069;-72
2021/10/23 13:00:39;;;;;;;4.22;2.67;;;20.00;99.90;;;;;;5080043;28;20081;-73
2021/10/23 13:03:07;;;;;;;4.50;2.85;;;20.00;99.90;;;;;;5080728;28;20113;-73
2021/10/23 13:05:35;;;;;;;4.55;2.95;;;20.00;99.90;;;;;;5091193;28;20070;-72
2021/10/23 13:08:03;;;;;;;3.67;2.95;;;19.90;99.90;;;;;;5090502;28;20024;-73